Santa Cruz de la Sierra, Bolivia
Current Conditions -  °F | °C
As of 7:00 PM on Wednesday 26 Nov 2014 (Local Time) from SLET Reporting Station
Broken Clouds Broken Clouds  
Wind Chill: 75°   Ceiling: 7000
Heat Index: 75°   Visibility: 6mi
Dew Point: 72°   Wind: 5mph
Humidity: 89%   Direction: 160°SSE
Pressure: 29.77"   Gusts: NA
Location:  17.79°S, 63.2°W
Report Text: SLET 262300Z 16004KT 9999 FEW020 BKN070 BKN200 24/22 Q1008
Loading
Personal Weather Stations






























Interactive Weather Map New forecast layout! Learn more

10-Day Weather Forecast

Advertisements
Track Severe Weather on mobile